sensor_id;sensor_type;location;lat;lon;timestamp;temperature;humidity
46562;DHT22;32289;42.688;23.330;2022-11-20T00:02:23;14.80;99.90
46562;DHT22;32289;42.688;23.330;2022-11-20T00:06:05;15.10;99.90
46562;DHT22;32289;42.688;23.330;2022-11-20T00:09:46;16.70;97.40
46562;DHT22;32289;42.688;23.330;2022-11-20T00:13:27;16.60;97.10
46562;DHT22;32289;42.688;23.330;2022-11-20T00:17:07;16.40;97.30
46562;DHT22;32289;42.688;23.330;2022-11-20T00:20:48;16.30;98.00
46562;DHT22;32289;42.688;23.330;2022-11-20T00:24:29;16.20;99.00
46562;DHT22;32289;42.688;23.330;2022-11-20T00:28:09;16.40;97.20
46562;DHT22;32289;42.688;23.330;2022-11-20T00:31:50;17.20;93.50
46562;DHT22;32289;42.688;23.330;2022-11-20T00:35:31;17.00;94.40
46562;DHT22;32289;42.688;23.330;2022-11-20T00:39:11;17.40;92.40
46562;DHT22;32289;42.688;23.330;2022-11-20T00:42:52;17.90;89.70
46562;DHT22;32289;42.688;23.330;2022-11-20T00:46:32;18.10;86.60
46562;DHT22;32289;42.688;23.330;2022-11-20T00:50:14;18.00;87.40
46562;DHT22;32289;42.688;23.330;2022-11-20T00:53:56;18.50;82.60
46562;DHT22;32289;42.688;23.330;2022-11-20T00:57:37;18.20;83.50
46562;DHT22;32289;42.688;23.330;2022-11-20T01:01:23;18.40;81.70
46562;DHT22;32289;42.688;23.330;2022-11-20T01:05:07;18.50;80.40
46562;DHT22;32289;42.688;23.330;2022-11-20T01:08:48;18.30;80.60
46562;DHT22;32289;42.688;23.330;2022-11-20T01:12:29;18.60;80.20
46562;DHT22;32289;42.688;23.330;2022-11-20T01:19:51;18.40;80.00
46562;DHT22;32289;42.688;23.330;2022-11-20T01:23:36;18.50;78.90
46562;DHT22;32289;42.688;23.330;2022-11-20T01:27:17;18.60;78.10
46562;DHT22;32289;42.688;23.330;2022-11-20T01:30:58;18.70;77.80
46562;DHT22;32289;42.688;23.330;2022-11-20T01:34:39;18.60;77.30
46562;DHT22;32289;42.688;23.330;2022-11-20T01:38:20;18.50;78.50
46562;DHT22;32289;42.688;23.330;2022-11-20T01:42:00;18.30;78.70
46562;DHT22;32289;42.688;23.330;2022-11-20T01:46:18;18.40;78.30
46562;DHT22;32289;42.688;23.330;2022-11-20T01:50:18;18.40;78.90
46562;DHT22;32289;42.688;23.330;2022-11-20T01:54:05;18.20;80.30
46562;DHT22;32289;42.688;23.330;2022-11-20T01:57:48;18.20;80.10
46562;DHT22;32289;42.688;23.330;2022-11-20T02:01:29;18.50;77.90
46562;DHT22;32289;42.688;23.330;2022-11-20T02:09:32;17.60;82.90
46562;DHT22;32289;42.688;23.330;2022-11-20T02:13:13;17.70;82.10
46562;DHT22;32289;42.688;23.330;2022-11-20T02:17:13;17.70;82.80
46562;DHT22;32289;42.688;23.330;2022-11-20T02:20:59;18.20;79.60
46562;DHT22;32289;42.688;23.330;2022-11-20T02:24:41;18.40;77.20
46562;DHT22;32289;42.688;23.330;2022-11-20T02:28:24;18.10;78.90
46562;DHT22;32289;42.688;23.330;2022-11-20T02:32:05;18.30;78.90
46562;DHT22;32289;42.688;23.330;2022-11-20T02:35:46;18.10;79.50
46562;DHT22;32289;42.688;23.330;2022-11-20T02:39:27;18.10;79.50
46562;DHT22;32289;42.688;23.330;2022-11-20T02:43:09;18.20;78.70
46562;DHT22;32289;42.688;23.330;2022-11-20T02:46:50;18.40;78.00
46562;DHT22;32289;42.688;23.330;2022-11-20T02:50:30;18.20;78.50
46562;DHT22;32289;42.688;23.330;2022-11-20T02:54:11;17.90;80.70
46562;DHT22;32289;42.688;23.330;2022-11-20T02:57:52;18.20;78.70
46562;DHT22;32289;42.688;23.330;2022-11-20T03:01:33;17.70;83.20
46562;DHT22;32289;42.688;23.330;2022-11-20T03:05:13;17.50;84.20
46562;DHT22;32289;42.688;23.330;2022-11-20T03:08:54;18.10;82.80
46562;DHT22;32289;42.688;23.330;2022-11-20T03:12:35;18.00;83.80
46562;DHT22;32289;42.688;23.330;2022-11-20T03:16:21;17.70;86.20
46562;DHT22;32289;42.688;23.330;2022-11-20T03:20:03;17.70;86.00
46562;DHT22;32289;42.688;23.330;2022-11-20T03:23:44;17.80;86.20
46562;DHT22;32289;42.688;23.330;2022-11-20T03:27:24;17.80;85.80
46562;DHT22;32289;42.688;23.330;2022-11-20T03:31:12;17.90;85.00
46562;DHT22;32289;42.688;23.330;2022-11-20T03:34:53;17.70;86.50
46562;DHT22;32289;42.688;23.330;2022-11-20T03:38:34;17.80;85.90
46562;DHT22;32289;42.688;23.330;2022-11-20T03:42:16;17.80;85.30
46562;DHT22;32289;42.688;23.330;2022-11-20T03:46:15;17.60;87.20
46562;DHT22;32289;42.688;23.330;2022-11-20T03:49:55;17.20;89.70
46562;DHT22;32289;42.688;23.330;2022-11-20T03:53:36;17.40;88.80
46562;DHT22;32289;42.688;23.330;2022-11-20T03:57:17;17.20;89.60
46562;DHT22;32289;42.688;23.330;2022-11-20T04:00:57;17.30;90.20
46562;DHT22;32289;42.688;23.330;2022-11-20T04:04:38;17.60;88.00
46562;DHT22;32289;42.688;23.330;2022-11-20T04:08:19;17.60;86.90
46562;DHT22;32289;42.688;23.330;2022-11-20T04:11:59;17.80;86.00
46562;DHT22;32289;42.688;23.330;2022-11-20T04:15:40;17.30;89.60
46562;DHT22;32289;42.688;23.330;2022-11-20T04:19:21;17.10;90.50
46562;DHT22;32289;42.688;23.330;2022-11-20T04:23:01;17.10;90.60
46562;DHT22;32289;42.688;23.330;2022-11-20T04:26:42;16.90;91.30
46562;DHT22;32289;42.688;23.330;2022-11-20T04:30:23;16.80;91.40
46562;DHT22;32289;42.688;23.330;2022-11-20T04:34:05;17.30;90.30
46562;DHT22;32289;42.688;23.330;2022-11-20T04:37:46;17.30;89.80
46562;DHT22;32289;42.688;23.330;2022-11-20T04:41:29;17.40;88.00
46562;DHT22;32289;42.688;23.330;2022-11-20T04:45:10;17.40;89.20
46562;DHT22;32289;42.688;23.330;2022-11-20T04:48:50;17.30;89.00
46562;DHT22;32289;42.688;23.330;2022-11-20T04:52:31;17.50;88.70
46562;DHT22;32289;42.688;23.330;2022-11-20T04:56:12;17.40;89.30
46562;DHT22;32289;42.688;23.330;2022-11-20T04:59:53;17.20;90.30
46562;DHT22;32289;42.688;23.330;2022-11-20T05:03:34;17.10;90.10
46562;DHT22;32289;42.688;23.330;2022-11-20T05:07:15;17.40;89.00
46562;DHT22;32289;42.688;23.330;2022-11-20T05:11:07;17.30;89.30
46562;DHT22;32289;42.688;23.330;2022-11-20T05:14:48;17.60;86.80
46562;DHT22;32289;42.688;23.330;2022-11-20T05:18:29;17.50;86.60
46562;DHT22;32289;42.688;23.330;2022-11-20T05:22:09;17.60;86.70
46562;DHT22;32289;42.688;23.330;2022-11-20T05:25:54;17.50;87.00
46562;DHT22;32289;42.688;23.330;2022-11-20T05:29:35;17.50;87.60
46562;DHT22;32289;42.688;23.330;2022-11-20T05:33:17;17.50;87.90
46562;DHT22;32289;42.688;23.330;2022-11-20T05:36:58;17.20;89.30
46562;DHT22;32289;42.688;23.330;2022-11-20T05:40:38;17.20;90.10
46562;DHT22;32289;42.688;23.330;2022-11-20T05:44:19;17.10;91.60
46562;DHT22;32289;42.688;23.330;2022-11-20T05:48:00;16.70;94.40
46562;DHT22;32289;42.688;23.330;2022-11-20T05:51:41;16.70;95.00
46562;DHT22;32289;42.688;23.330;2022-11-20T05:55:21;16.50;96.40
46562;DHT22;32289;42.688;23.330;2022-11-20T05:59:02;16.50;96.90
46562;DHT22;32289;42.688;23.330;2022-11-20T06:02:43;16.50;96.90
46562;DHT22;32289;42.688;23.330;2022-11-20T06:06:23;16.60;96.30
46562;DHT22;32289;42.688;23.330;2022-11-20T06:10:06;16.60;96.30
46562;DHT22;32289;42.688;23.330;2022-11-20T06:13:47;16.70;95.70
46562;DHT22;32289;42.688;23.330;2022-11-20T06:17:28;16.80;95.60
46562;DHT22;32289;42.688;23.330;2022-11-20T06:21:11;16.80;95.20
46562;DHT22;32289;42.688;23.330;2022-11-20T06:24:53;16.80;95.50
46562;DHT22;32289;42.688;23.330;2022-11-20T06:28:34;16.80;95.60
46562;DHT22;32289;42.688;23.330;2022-11-20T06:32:14;16.80;95.20
46562;DHT22;32289;42.688;23.330;2022-11-20T06:35:59;17.00;94.30
46562;DHT22;32289;42.688;23.330;2022-11-20T06:39:40;17.00;94.20
46562;DHT22;32289;42.688;23.330;2022-11-20T06:43:22;17.00;94.40
46562;DHT22;32289;42.688;23.330;2022-11-20T06:47:03;17.00;94.40
46562;DHT22;32289;42.688;23.330;2022-11-20T06:50:44;17.00;94.80
46562;DHT22;32289;42.688;23.330;2022-11-20T06:54:24;17.00;94.80
46562;DHT22;32289;42.688;23.330;2022-11-20T06:58:05;17.00;94.00
46562;DHT22;32289;42.688;23.330;2022-11-20T07:01:45;17.10;93.90
46562;DHT22;32289;42.688;23.330;2022-11-20T07:05:26;17.20;93.80
46562;DHT22;32289;42.688;23.330;2022-11-20T07:09:07;17.20;93.80
46562;DHT22;32289;42.688;23.330;2022-11-20T07:12:52;17.10;94.00
46562;DHT22;32289;42.688;23.330;2022-11-20T07:16:33;17.10;93.80
46562;DHT22;32289;42.688;23.330;2022-11-20T07:20:14;17.10;93.80
46562;DHT22;32289;42.688;23.330;2022-11-20T07:23:55;17.30;92.90
46562;DHT22;32289;42.688;23.330;2022-11-20T07:27:36;17.20;93.30
46562;DHT22;32289;42.688;23.330;2022-11-20T07:31:17;17.20;93.10
46562;DHT22;32289;42.688;23.330;2022-11-20T07:34:57;17.20;92.70
46562;DHT22;32289;42.688;23.330;2022-11-20T07:38:38;17.30;92.10
46562;DHT22;32289;42.688;23.330;2022-11-20T07:42:19;17.20;92.30
46562;DHT22;32289;42.688;23.330;2022-11-20T07:45:59;17.30;92.40
46562;DHT22;32289;42.688;23.330;2022-11-20T07:49:40;17.30;92.30
46562;DHT22;32289;42.688;23.330;2022-11-20T07:53:20;17.20;92.00
46562;DHT22;32289;42.688;23.330;2022-11-20T07:57:02;17.10;92.20
46562;DHT22;32289;42.688;23.330;2022-11-20T08:00:42;17.20;92.40
46562;DHT22;32289;42.688;23.330;2022-11-20T08:04:23;17.30;91.40
46562;DHT22;32289;42.688;23.330;2022-11-20T08:08:04;17.20;91.60
46562;DHT22;32289;42.688;23.330;2022-11-20T08:11:45;17.20;92.20
46562;DHT22;32289;42.688;23.330;2022-11-20T08:15:48;17.20;92.60
46562;DHT22;32289;42.688;23.330;2022-11-20T08:19:30;17.20;92.50
46562;DHT22;32289;42.688;23.330;2022-11-20T08:23:11;17.20;92.50
46562;DHT22;32289;42.688;23.330;2022-11-20T08:26:52;17.30;92.10
46562;DHT22;32289;42.688;23.330;2022-11-20T08:30:33;17.30;91.70
46562;DHT22;32289;42.688;23.330;2022-11-20T08:34:14;17.40;92.80
46562;DHT22;32289;42.688;23.330;2022-11-20T08:37:55;17.00;93.30
46562;DHT22;32289;42.688;23.330;2022-11-20T08:41:35;17.00;94.70
46562;DHT22;32289;42.688;23.330;2022-11-20T08:45:18;17.00;93.70
46562;DHT22;32289;42.688;23.330;2022-11-20T08:48:59;17.00;93.70
46562;DHT22;32289;42.688;23.330;2022-11-20T08:52:40;17.10;92.30
46562;DHT22;32289;42.688;23.330;2022-11-20T08:56:21;17.20;95.00
46562;DHT22;32289;42.688;23.330;2022-11-20T09:00:04;17.00;98.40
46562;DHT22;32289;42.688;23.330;2022-11-20T09:03:46;16.80;99.90
46562;DHT22;32289;42.688;23.330;2022-11-20T09:07:26;16.90;99.70
46562;DHT22;32289;42.688;23.330;2022-11-20T09:11:07;17.00;99.20
46562;DHT22;32289;42.688;23.330;2022-11-20T09:14:48;17.00;99.20
46562;DHT22;32289;42.688;23.330;2022-11-20T09:18:30;16.80;99.90
46562;DHT22;32289;42.688;23.330;2022-11-20T09:22:12;16.70;99.90
46562;DHT22;32289;42.688;23.330;2022-11-20T09:25:52;16.30;99.90
46562;DHT22;32289;42.688;23.330;2022-11-20T09:29:35;16.10;99.90
46562;DHT22;32289;42.688;23.330;2022-11-20T09:33:16;16.00;99.90
46562;DHT22;32289;42.688;23.330;2022-11-20T09:36:57;15.80;99.90
46562;DHT22;32289;42.688;23.330;2022-11-20T09:40:43;15.60;99.90
46562;DHT22;32289;42.688;23.330;2022-11-20T09:44:39;15.60;99.90
46562;DHT22;32289;42.688;23.330;2022-11-20T09:52:35;15.90;99.90
46562;DHT22;32289;42.688;23.330;2022-11-20T09:56:17;15.90;99.90
46562;DHT22;32289;42.688;23.330;2022-11-20T10:00:00;16.20;99.90
46562;DHT22;32289;42.688;23.330;2022-11-20T10:15:59;17.60;99.90
46562;DHT22;32289;42.688;23.330;2022-11-20T10:31:35;16.50;99.90
46562;DHT22;32289;42.688;23.330;2022-11-20T10:35:35;16.50;99.90
46562;DHT22;32289;42.688;23.330;2022-11-20T10:39:39;16.60;99.90
46562;DHT22;32289;42.688;23.330;2022-11-20T10:43:32;16.60;99.90
46562;DHT22;32289;42.688;23.330;2022-11-20T10:47:16;16.90;99.90
46562;DHT22;32289;42.688;23.330;2022-11-20T10:58:47;16.30;99.90
46562;DHT22;32289;42.688;23.330;2022-11-20T11:02:42;16.60;99.90
46562;DHT22;32289;42.688;23.330;2022-11-20T11:06:40;16.40;99.90
46562;DHT22;32289;42.688;23.330;2022-11-20T11:10:32;16.30;99.90
46562;DHT22;32289;42.688;23.330;2022-11-20T11:14:15;15.70;99.90
46562;DHT22;32289;42.688;23.330;2022-11-20T11:17:56;14.20;99.90
46562;DHT22;32289;42.688;23.330;2022-11-20T11:21:37;14.70;99.90
46562;DHT22;32289;42.688;23.330;2022-11-20T11:25:34;14.70;99.90
46562;DHT22;32289;42.688;23.330;2022-11-20T11:29:17;14.10;99.90
46562;DHT22;32289;42.688;23.330;2022-11-20T11:33:31;13.40;99.90
46562;DHT22;32289;42.688;23.330;2022-11-20T11:37:19;13.50;99.90
46562;DHT22;32289;42.688;23.330;2022-11-20T11:41:03;13.70;99.90
46562;DHT22;32289;42.688;23.330;2022-11-20T11:44:45;13.60;99.90
46562;DHT22;32289;42.688;23.330;2022-11-20T11:48:59;13.30;99.90
46562;DHT22;32289;42.688;23.330;2022-11-20T11:52:56;13.50;99.90
46562;DHT22;32289;42.688;23.330;2022-11-20T11:56:39;13.50;99.90
46562;DHT22;32289;42.688;23.330;2022-11-20T12:00:22;13.80;99.90
46562;DHT22;32289;42.688;23.330;2022-11-20T12:09:08;13.70;99.90
46562;DHT22;32289;42.688;23.330;2022-11-20T12:12:39;14.10;99.90
46562;DHT22;32289;42.688;23.330;2022-11-20T12:16:23;14.20;99.90
46562;DHT22;32289;42.688;23.330;2022-11-20T12:20:13;14.10;99.90
46562;DHT22;32289;42.688;23.330;2022-11-20T12:39:43;13.10;99.90
46562;DHT22;32289;42.688;23.330;2022-11-20T12:43:31;13.40;99.90
46562;DHT22;32289;42.688;23.330;2022-11-20T13:00:20;13.10;99.90
46562;DHT22;32289;42.688;23.330;2022-11-20T13:04:54;13.00;99.90
46562;DHT22;32289;42.688;23.330;2022-11-20T13:08:23;12.80;99.90
46562;DHT22;32289;42.688;23.330;2022-11-20T13:15:54;12.90;99.90
46562;DHT22;32289;42.688;23.330;2022-11-20T13:19:36;12.90;99.90
46562;DHT22;32289;42.688;23.330;2022-11-20T13:23:27;13.00;99.90
46562;DHT22;32289;42.688;23.330;2022-11-20T13:30:54;13.00;99.90
46562;DHT22;32289;42.688;23.330;2022-11-20T13:34:36;13.20;99.90
46562;DHT22;32289;42.688;23.330;2022-11-20T13:38:17;13.10;99.90
46562;DHT22;32289;42.688;23.330;2022-11-20T13:42:26;13.00;99.90
46562;DHT22;32289;42.688;23.330;2022-11-20T13:46:06;13.20;99.90
46562;DHT22;32289;42.688;23.330;2022-11-20T13:49:47;13.00;99.90
46562;DHT22;32289;42.688;23.330;2022-11-20T13:57:58;13.00;99.90
46562;DHT22;32289;42.688;23.330;2022-11-20T14:01:43;13.20;99.90
46562;DHT22;32289;42.688;23.330;2022-11-20T14:05:25;13.20;99.90
46562;DHT22;32289;42.688;23.330;2022-11-20T14:09:24;13.10;99.90
46562;DHT22;32289;42.688;23.330;2022-11-20T14:13:20;13.00;99.90
46562;DHT22;32289;42.688;23.330;2022-11-20T14:17:31;13.20;99.90
46562;DHT22;32289;42.688;23.330;2022-11-20T14:21:25;13.20;99.90
46562;DHT22;32289;42.688;23.330;2022-11-20T14:28:59;13.10;99.90
46562;DHT22;32289;42.688;23.330;2022-11-20T14:32:41;13.30;99.90
46562;DHT22;32289;42.688;23.330;2022-11-20T14:36:24;13.20;99.90
46562;DHT22;32289;42.688;23.330;2022-11-20T14:40:29;13.30;99.90
46562;DHT22;32289;42.688;23.330;2022-11-20T14:44:10;13.20;99.90
46562;DHT22;32289;42.688;23.330;2022-11-20T14:47:53;13.40;99.90
46562;DHT22;32289;42.688;23.330;2022-11-20T14:51:35;13.40;99.90
46562;DHT22;32289;42.688;23.330;2022-11-20T14:55:32;13.30;99.90
46562;DHT22;32289;42.688;23.330;2022-11-20T14:59:23;13.40;99.90
46562;DHT22;32289;42.688;23.330;2022-11-20T15:03:15;13.30;99.90
46562;DHT22;32289;42.688;23.330;2022-11-20T15:06:58;13.20;99.90
46562;DHT22;32289;42.688;23.330;2022-11-20T15:10:44;13.10;99.90
46562;DHT22;32289;42.688;23.330;2022-11-20T15:14:26;13.10;99.90
46562;DHT22;32289;42.688;23.330;2022-11-20T15:18:16;13.00;99.90
46562;DHT22;32289;42.688;23.330;2022-11-20T15:21:58;13.00;99.90
46562;DHT22;32289;42.688;23.330;2022-11-20T15:25:40;12.90;99.90
46562;DHT22;32289;42.688;23.330;2022-11-20T15:29:22;12.90;99.90
46562;DHT22;32289;42.688;23.330;2022-11-20T15:33:07;13.00;99.90
46562;DHT22;32289;42.688;23.330;2022-11-20T15:36:48;13.00;99.90
46562;DHT22;32289;42.688;23.330;2022-11-20T15:40:28;13.00;99.90
46562;DHT22;32289;42.688;23.330;2022-11-20T15:44:09;13.00;99.90
46562;DHT22;32289;42.688;23.330;2022-11-20T15:47:50;12.80;99.90
46562;DHT22;32289;42.688;23.330;2022-11-20T15:51:34;12.60;99.90
46562;DHT22;32289;42.688;23.330;2022-11-20T15:55:15;12.20;99.90
46562;DHT22;32289;42.688;23.330;2022-11-20T15:58:56;11.90;99.90
46562;DHT22;32289;42.688;23.330;2022-11-20T16:02:36;11.90;99.90
46562;DHT22;32289;42.688;23.330;2022-11-20T16:06:17;11.80;99.90
46562;DHT22;32289;42.688;23.330;2022-11-20T16:09:58;11.80;99.90
46562;DHT22;32289;42.688;23.330;2022-11-20T16:13:38;11.70;99.90
46562;DHT22;32289;42.688;23.330;2022-11-20T16:17:38;11.60;99.90
46562;DHT22;32289;42.688;23.330;2022-11-20T16:21:24;11.50;99.90
46562;DHT22;32289;42.688;23.330;2022-11-20T16:25:11;11.70;99.90
46562;DHT22;32289;42.688;23.330;2022-11-20T16:28:52;11.60;99.90
46562;DHT22;32289;42.688;23.330;2022-11-20T16:32:33;11.70;99.90
46562;DHT22;32289;42.688;23.330;2022-11-20T16:36:14;11.50;99.90
46562;DHT22;32289;42.688;23.330;2022-11-20T16:39:55;11.50;99.90
46562;DHT22;32289;42.688;23.330;2022-11-20T16:43:36;11.30;99.90
46562;DHT22;32289;42.688;23.330;2022-11-20T16:47:17;11.70;99.90
46562;DHT22;32289;42.688;23.330;2022-11-20T16:50:58;11.40;99.90
46562;DHT22;32289;42.688;23.330;2022-11-20T16:54:39;11.60;99.90
46562;DHT22;32289;42.688;23.330;2022-11-20T16:58:20;11.70;99.90
46562;DHT22;32289;42.688;23.330;2022-11-20T17:02:01;11.50;99.90
46562;DHT22;32289;42.688;23.330;2022-11-20T17:05:42;11.60;99.90
46562;DHT22;32289;42.688;23.330;2022-11-20T17:09:23;11.70;99.90
46562;DHT22;32289;42.688;23.330;2022-11-20T17:13:03;11.60;99.90
46562;DHT22;32289;42.688;23.330;2022-11-20T17:16:44;11.50;99.90
46562;DHT22;32289;42.688;23.330;2022-11-20T17:20:25;11.70;99.90
46562;DHT22;32289;42.688;23.330;2022-11-20T17:24:08;11.50;99.90
46562;DHT22;32289;42.688;23.330;2022-11-20T17:27:49;11.50;99.90
46562;DHT22;32289;42.688;23.330;2022-11-20T17:31:32;11.40;99.90
46562;DHT22;32289;42.688;23.330;2022-11-20T17:35:13;11.40;99.90
46562;DHT22;32289;42.688;23.330;2022-11-20T17:38:54;11.40;99.90
46562;DHT22;32289;42.688;23.330;2022-11-20T17:42:34;11.50;99.90
46562;DHT22;32289;42.688;23.330;2022-11-20T17:46:18;11.50;99.90
46562;DHT22;32289;42.688;23.330;2022-11-20T17:50:00;11.40;99.90
46562;DHT22;32289;42.688;23.330;2022-11-20T17:53:42;11.30;99.90
46562;DHT22;32289;42.688;23.330;2022-11-20T17:57:23;11.30;99.90
46562;DHT22;32289;42.688;23.330;2022-11-20T18:01:23;11.30;99.90
46562;DHT22;32289;42.688;23.330;2022-11-20T18:05:04;11.20;99.90
46562;DHT22;32289;42.688;23.330;2022-11-20T18:08:45;11.20;99.90
46562;DHT22;32289;42.688;23.330;2022-11-20T18:12:26;11.10;99.90
46562;DHT22;32289;42.688;23.330;2022-11-20T18:16:07;11.00;99.90
46562;DHT22;32289;42.688;23.330;2022-11-20T18:19:48;11.20;99.90
46562;DHT22;32289;42.688;23.330;2022-11-20T18:23:32;11.30;99.90
46562;DHT22;32289;42.688;23.330;2022-11-20T18:27:18;11.30;99.90
46562;DHT22;32289;42.688;23.330;2022-11-20T18:31:04;11.20;99.90
46562;DHT22;32289;42.688;23.330;2022-11-20T18:34:45;11.30;99.90
46562;DHT22;32289;42.688;23.330;2022-11-20T18:38:26;11.20;99.90
46562;DHT22;32289;42.688;23.330;2022-11-20T18:42:11;11.20;99.90
46562;DHT22;32289;42.688;23.330;2022-11-20T18:46:10;11.10;99.90
46562;DHT22;32289;42.688;23.330;2022-11-20T18:49:52;10.90;99.90
46562;DHT22;32289;42.688;23.330;2022-11-20T18:53:34;11.10;99.90
46562;DHT22;32289;42.688;23.330;2022-11-20T18:57:17;10.90;99.90
46562;DHT22;32289;42.688;23.330;2022-11-20T19:01:05;10.80;99.90
46562;DHT22;32289;42.688;23.330;2022-11-20T19:04:46;10.50;99.90
46562;DHT22;32289;42.688;23.330;2022-11-20T19:08:27;9.90;99.90
46562;DHT22;32289;42.688;23.330;2022-11-20T19:12:09;9.80;99.90
46562;DHT22;32289;42.688;23.330;2022-11-20T19:15:50;9.60;99.90
46562;DHT22;32289;42.688;23.330;2022-11-20T19:19:32;9.90;99.90
46562;DHT22;32289;42.688;23.330;2022-11-20T19:23:13;9.90;99.90
46562;DHT22;32289;42.688;23.330;2022-11-20T19:26:54;9.70;99.90
46562;DHT22;32289;42.688;23.330;2022-11-20T19:30:36;9.70;99.90
46562;DHT22;32289;42.688;23.330;2022-11-20T19:34:17;9.50;99.90
46562;DHT22;32289;42.688;23.330;2022-11-20T19:37:58;9.80;99.90
46562;DHT22;32289;42.688;23.330;2022-11-20T19:41:39;9.70;99.90
46562;DHT22;32289;42.688;23.330;2022-11-20T19:45:20;9.60;99.90
46562;DHT22;32289;42.688;23.330;2022-11-20T19:49:02;9.70;99.90
46562;DHT22;32289;42.688;23.330;2022-11-20T19:52:42;9.60;99.90
46562;DHT22;32289;42.688;23.330;2022-11-20T19:56:27;9.60;99.90
46562;DHT22;32289;42.688;23.330;2022-11-20T20:00:09;9.80;99.90
46562;DHT22;32289;42.688;23.330;2022-11-20T20:03:50;9.90;99.90
46562;DHT22;32289;42.688;23.330;2022-11-20T20:07:31;9.90;99.90
46562;DHT22;32289;42.688;23.330;2022-11-20T20:11:16;9.90;99.90
46562;DHT22;32289;42.688;23.330;2022-11-20T20:14:57;9.80;99.90
46562;DHT22;32289;42.688;23.330;2022-11-20T20:18:38;9.80;99.90
46562;DHT22;32289;42.688;23.330;2022-11-20T20:22:18;9.80;99.90
46562;DHT22;32289;42.688;23.330;2022-11-20T20:25:59;10.00;99.90
46562;DHT22;32289;42.688;23.330;2022-11-20T20:29:40;9.90;99.90
46562;DHT22;32289;42.688;23.330;2022-11-20T20:33:21;10.00;99.90
46562;DHT22;32289;42.688;23.330;2022-11-20T20:37:02;9.90;99.90
46562;DHT22;32289;42.688;23.330;2022-11-20T20:40:46;9.80;99.90
46562;DHT22;32289;42.688;23.330;2022-11-20T20:44:28;9.90;99.90
46562;DHT22;32289;42.688;23.330;2022-11-20T20:48:27;9.90;99.90
46562;DHT22;32289;42.688;23.330;2022-11-20T20:52:09;10.00;99.90
46562;DHT22;32289;42.688;23.330;2022-11-20T20:56:17;10.00;99.90
46562;DHT22;32289;42.688;23.330;2022-11-20T21:00:09;10.20;99.90
46562;DHT22;32289;42.688;23.330;2022-11-20T21:03:50;9.80;99.90
46562;DHT22;32289;42.688;23.330;2022-11-20T21:07:31;9.70;99.90
46562;DHT22;32289;42.688;23.330;2022-11-20T21:11:14;9.70;99.90
46562;DHT22;32289;42.688;23.330;2022-11-20T21:14:55;9.80;99.90
46562;DHT22;32289;42.688;23.330;2022-11-20T21:18:36;9.70;99.90
46562;DHT22;32289;42.688;23.330;2022-11-20T21:22:16;9.60;99.90
46562;DHT22;32289;42.688;23.330;2022-11-20T21:26:00;9.60;99.90
46562;DHT22;32289;42.688;23.330;2022-11-20T21:29:41;9.50;99.90
46562;DHT22;32289;42.688;23.330;2022-11-20T21:33:22;9.50;99.90
46562;DHT22;32289;42.688;23.330;2022-11-20T21:37:03;9.70;99.90
46562;DHT22;32289;42.688;23.330;2022-11-20T21:40:43;9.50;99.90
46562;DHT22;32289;42.688;23.330;2022-11-20T21:44:24;9.40;99.90
46562;DHT22;32289;42.688;23.330;2022-11-20T21:48:05;9.50;99.90
46562;DHT22;32289;42.688;23.330;2022-11-20T21:51:46;9.40;99.90
46562;DHT22;32289;42.688;23.330;2022-11-20T21:55:26;9.40;99.90
46562;DHT22;32289;42.688;23.330;2022-11-20T21:59:13;9.40;99.90
46562;DHT22;32289;42.688;23.330;2022-11-20T22:02:54;9.40;99.90
46562;DHT22;32289;42.688;23.330;2022-11-20T22:06:34;9.30;99.90
46562;DHT22;32289;42.688;23.330;2022-11-20T22:10:15;9.20;99.90
46562;DHT22;32289;42.688;23.330;2022-11-20T22:13:56;9.30;99.90
46562;DHT22;32289;42.688;23.330;2022-11-20T22:17:55;9.20;99.90
46562;DHT22;32289;42.688;23.330;2022-11-20T22:21:54;9.10;99.90
46562;DHT22;32289;42.688;23.330;2022-11-20T22:25:35;9.10;99.90
46562;DHT22;32289;42.688;23.330;2022-11-20T22:29:19;9.10;99.90
46562;DHT22;32289;42.688;23.330;2022-11-20T22:33:00;9.10;99.90
46562;DHT22;32289;42.688;23.330;2022-11-20T22:36:41;9.30;99.90
46562;DHT22;32289;42.688;23.330;2022-11-20T22:40:22;9.20;99.90
46562;DHT22;32289;42.688;23.330;2022-11-20T22:44:06;9.20;99.90
46562;DHT22;32289;42.688;23.330;2022-11-20T22:47:47;9.30;99.90
46562;DHT22;32289;42.688;23.330;2022-11-20T22:51:33;9.20;99.90
46562;DHT22;32289;42.688;23.330;2022-11-20T22:55:14;9.30;99.90
46562;DHT22;32289;42.688;23.330;2022-11-20T22:58:55;9.40;99.90
46562;DHT22;32289;42.688;23.330;2022-11-20T23:02:36;9.50;99.90
46562;DHT22;32289;42.688;23.330;2022-11-20T23:06:18;9.50;99.90
46562;DHT22;32289;42.688;23.330;2022-11-20T23:09:59;9.50;99.90
46562;DHT22;32289;42.688;23.330;2022-11-20T23:13:40;9.50;99.90
46562;DHT22;32289;42.688;23.330;2022-11-20T23:17:21;9.50;99.90
46562;DHT22;32289;42.688;23.330;2022-11-20T23:21:06;9.70;99.90
46562;DHT22;32289;42.688;23.330;2022-11-20T23:24:48;9.80;99.90
46562;DHT22;32289;42.688;23.330;2022-11-20T23:28:28;9.70;99.90
46562;DHT22;32289;42.688;23.330;2022-11-20T23:32:09;9.70;99.90
46562;DHT22;32289;42.688;23.330;2022-11-20T23:35:50;9.70;99.90
46562;DHT22;32289;42.688;23.330;2022-11-20T23:39:31;9.70;99.90
46562;DHT22;32289;42.688;23.330;2022-11-20T23:43:12;9.60;99.90
46562;DHT22;32289;42.688;23.330;2022-11-20T23:46:56;9.60;99.90
46562;DHT22;32289;42.688;23.330;2022-11-20T23:50:36;9.70;99.90
46562;DHT22;32289;42.688;23.330;2022-11-20T23:54:17;9.70;99.90
46562;DHT22;32289;42.688;23.330;2022-11-20T23:57:58;9.70;99.90
